createdAt,value
2019-03-31T00:02:14.368Z,11.75
2019-03-31T00:04:45.026Z,11.75
2019-03-31T00:07:15.566Z,11.74
2019-03-31T00:09:46.087Z,11.74
2019-03-31T00:12:16.718Z,11.76
2019-03-31T00:14:47.145Z,11.79
2019-03-31T00:17:18.382Z,11.77
2019-03-31T00:19:50.398Z,11.77
2019-03-31T00:22:21.191Z,11.73
2019-03-31T00:24:53.626Z,11.71
2019-03-31T00:27:24.246Z,11.72
2019-03-31T00:29:54.618Z,11.71
2019-03-31T00:32:25.142Z,11.70
2019-03-31T00:34:55.655Z,11.63
2019-03-31T00:37:26.207Z,11.51
2019-03-31T00:39:57.031Z,11.43
2019-03-31T00:42:27.571Z,11.42
2019-03-31T00:44:58.088Z,11.32
2019-03-31T00:47:28.615Z,11.28
2019-03-31T00:49:59.140Z,11.25
2019-03-31T00:52:29.741Z,11.17
2019-03-31T00:55:04.403Z,11.15
2019-03-31T00:57:35.518Z,11.13
2019-03-31T01:00:08.444Z,11.10
2019-03-31T01:02:40.709Z,11.05
2019-03-31T01:05:11.710Z,11.00
2019-03-31T01:07:42.457Z,10.97
2019-03-31T01:10:13.363Z,10.89
2019-03-31T01:12:44.033Z,10.85
2019-03-31T01:15:17.218Z,10.81
2019-03-31T01:17:48.008Z,10.72
2019-03-31T01:20:20.013Z,10.69
2019-03-31T01:22:50.681Z,10.64
2019-03-31T01:25:21.452Z,10.60
2019-03-31T01:27:52.320Z,10.62
2019-03-31T01:30:23.514Z,10.58
2019-03-31T01:32:55.443Z,10.58
2019-03-31T01:35:26.423Z,10.54
2019-03-31T01:37:57.013Z,10.46
2019-03-31T01:40:27.483Z,10.33
2019-03-31T01:42:57.991Z,10.25
2019-03-31T01:45:28.326Z,10.21
2019-03-31T01:47:59.389Z,10.17
2019-03-31T01:50:30.792Z,10.08
2019-03-31T01:53:01.128Z,9.96
2019-03-31T01:55:32.617Z,9.93
2019-03-31T01:58:03.469Z,9.92
2019-03-31T02:00:39.320Z,9.91
2019-03-31T02:03:10.363Z,9.87
2019-03-31T02:05:40.955Z,9.88
2019-03-31T02:08:11.632Z,9.80
2019-03-31T02:10:42.255Z,9.76
2019-03-31T02:13:13.161Z,9.79
2019-03-31T02:15:43.559Z,9.77
2019-03-31T02:18:14.754Z,9.76
2019-03-31T02:20:45.083Z,9.74
2019-03-31T02:23:16.728Z,9.71
2019-03-31T02:25:48.476Z,9.76
2019-03-31T02:28:20.038Z,9.72
2019-03-31T02:30:50.501Z,9.72
2019-03-31T02:33:22.162Z,9.68
2019-03-31T02:35:52.599Z,9.62
2019-03-31T02:38:23.018Z,9.59
2019-03-31T02:40:53.726Z,9.58
2019-03-31T02:43:24.439Z,9.53
2019-03-31T02:45:54.867Z,9.52
2019-03-31T02:48:25.338Z,9.49
2019-03-31T02:50:56.766Z,9.40
2019-03-31T02:53:27.253Z,9.45
2019-03-31T02:55:58.072Z,9.40
2019-03-31T02:58:30.146Z,9.37
2019-03-31T03:01:01.097Z,9.32
2019-03-31T03:03:33.434Z,9.21
2019-03-31T03:06:05.492Z,9.12
2019-03-31T03:08:39.105Z,9.07
2019-03-31T03:11:10.547Z,9.04
2019-03-31T03:13:43.649Z,9.00
2019-03-31T03:16:32.413Z,9.02
2019-03-31T03:19:03.215Z,9.02
2019-03-31T03:21:33.890Z,9.03
2019-03-31T03:24:04.316Z,9.04
2019-03-31T03:26:34.934Z,9.06
2019-03-31T03:29:06.487Z,9.02
2019-03-31T03:31:37.087Z,9.02
2019-03-31T03:34:07.907Z,9.05
2019-03-31T03:36:42.599Z,9.02
2019-03-31T03:39:10.299Z,8.99
2019-03-31T03:41:41.214Z,9.00
2019-03-31T03:44:11.836Z,9.00
2019-03-31T03:46:42.608Z,8.94
2019-03-31T03:49:13.721Z,8.99
2019-03-31T03:51:44.272Z,9.04
2019-03-31T03:54:14.882Z,9.07
2019-03-31T03:56:45.213Z,9.13
2019-03-31T03:59:16.298Z,9.19
2019-03-31T04:01:47.212Z,9.22
2019-03-31T04:04:18.037Z,9.20
2019-03-31T04:06:48.572Z,9.13
2019-03-31T04:09:19.199Z,9.16
2019-03-31T04:11:49.534Z,9.16
2019-03-31T04:14:20.896Z,9.14
2019-03-31T04:16:51.297Z,9.09
2019-03-31T04:19:22.145Z,9.05
2019-03-31T04:21:52.638Z,9.04
2019-03-31T04:24:23.513Z,9.06
2019-03-31T04:26:54.332Z,9.02
2019-03-31T04:29:25.124Z,9.01
2019-03-31T04:31:55.544Z,8.99
2019-03-31T04:34:25.949Z,8.98
2019-03-31T04:36:56.433Z,9.00
2019-03-31T04:39:27.142Z,8.94
2019-03-31T04:41:57.963Z,8.85
2019-03-31T04:44:29.550Z,8.80
2019-03-31T04:47:00.672Z,8.78
2019-03-31T04:49:31.223Z,8.77
2019-03-31T04:52:01.558Z,8.78
2019-03-31T04:54:32.165Z,8.81
2019-03-31T04:57:04.521Z,8.70
2019-03-31T04:59:35.034Z,8.65
2019-03-31T05:02:06.325Z,8.71
2019-03-31T05:04:37.168Z,8.67
2019-03-31T05:07:07.485Z,8.65
2019-03-31T05:09:38.232Z,8.65
2019-03-31T05:12:08.734Z,8.70
2019-03-31T05:14:39.337Z,8.76
2019-03-31T05:17:10.101Z,8.79
2019-03-31T05:19:41.243Z,8.86
2019-03-31T05:22:11.926Z,8.90
2019-03-31T05:24:42.252Z,8.95
2019-03-31T05:27:12.586Z,9.02
2019-03-31T05:29:43.389Z,9.01
2019-03-31T05:32:14.302Z,9.07
2019-03-31T05:34:45.227Z,9.08
2019-03-31T05:37:16.075Z,9.08
2019-03-31T05:39:46.709Z,9.07
2019-03-31T05:42:17.243Z,9.05
2019-03-31T05:44:48.056Z,9.06
2019-03-31T05:47:18.834Z,9.10
2019-03-31T05:49:49.609Z,9.15
2019-03-31T05:52:20.752Z,9.12
2019-03-31T05:54:51.257Z,9.12
2019-03-31T05:57:21.966Z,9.12
2019-03-31T05:59:52.746Z,9.12
2019-03-31T06:02:23.258Z,9.17
2019-03-31T06:04:53.680Z,9.22
2019-03-31T06:07:24.514Z,9.23
2019-03-31T06:09:55.352Z,9.21
2019-03-31T06:12:26.224Z,9.26
2019-03-31T06:14:57.366Z,9.29
2019-03-31T06:17:29.029Z,9.31
2019-03-31T06:19:59.485Z,9.27
2019-03-31T06:22:30.304Z,9.27
2019-03-31T06:25:00.821Z,9.24
2019-03-31T06:27:31.220Z,9.25
2019-03-31T06:30:01.807Z,9.29
2019-03-31T06:32:32.133Z,9.38
2019-03-31T06:35:02.857Z,9.41
2019-03-31T06:37:33.256Z,9.49
2019-03-31T06:40:03.895Z,9.57
2019-03-31T06:42:34.519Z,9.61
2019-03-31T06:45:07.216Z,9.62
2019-03-31T06:47:37.837Z,9.65
2019-03-31T06:50:08.763Z,9.76
2019-03-31T06:52:39.411Z,9.87
2019-03-31T06:55:10.984Z,9.97
2019-03-31T06:57:41.679Z,10.01
2019-03-31T07:00:13.347Z,10.07
2019-03-31T07:02:44.160Z,10.09
2019-03-31T07:05:14.978Z,10.16
2019-03-31T07:07:45.356Z,10.20
2019-03-31T07:10:16.332Z,10.25
2019-03-31T07:12:47.429Z,10.28
2019-03-31T07:15:18.547Z,10.29
2019-03-31T07:17:49.300Z,10.28
2019-03-31T07:20:20.718Z,10.30
2019-03-31T07:22:51.457Z,10.32
2019-03-31T07:25:22.217Z,10.28
2019-03-31T07:27:52.958Z,10.28
2019-03-31T07:30:23.936Z,10.26
2019-03-31T07:32:54.307Z,10.20
2019-03-31T07:35:24.854Z,10.28
2019-03-31T07:37:55.467Z,10.28
2019-03-31T07:40:26.353Z,10.25
2019-03-31T07:42:57.100Z,10.22
2019-03-31T07:45:27.451Z,10.21
2019-03-31T07:47:58.034Z,10.19
2019-03-31T07:50:28.529Z,10.23
2019-03-31T07:52:59.337Z,10.26
2019-03-31T07:55:29.982Z,10.28
2019-03-31T07:58:02.299Z,10.33
2019-03-31T08:00:32.883Z,10.31
2019-03-31T08:03:03.602Z,10.32
2019-03-31T08:05:37.606Z,10.35
2019-03-31T08:15:35.755Z,10.59
2019-03-31T08:18:07.084Z,10.68
2019-03-31T08:20:37.835Z,10.84
2019-03-31T08:23:08.664Z,10.99
2019-03-31T08:25:39.298Z,10.99
2019-03-31T08:28:10.436Z,11.01
2019-03-31T08:30:42.194Z,11.06
2019-03-31T08:33:13.204Z,11.12
2019-03-31T08:35:47.508Z,11.17
2019-03-31T08:38:16.342Z,11.22
2019-03-31T08:40:46.882Z,11.35
2019-03-31T08:43:17.394Z,11.43
2019-03-31T08:45:47.922Z,11.42
2019-03-31T08:48:18.640Z,11.42
2019-03-31T08:50:49.468Z,11.42
2019-03-31T08:53:20.430Z,11.44
2019-03-31T08:55:51.163Z,11.28
2019-03-31T08:58:22.786Z,11.26
2019-03-31T09:00:57.238Z,11.26
2019-03-31T09:03:27.764Z,11.24
2019-03-31T09:06:02.025Z,11.24
2019-03-31T09:08:30.667Z,11.25
2019-03-31T09:11:02.188Z,11.33
2019-03-31T09:13:32.936Z,11.44
2019-03-31T09:16:03.486Z,11.52
2019-03-31T09:18:34.334Z,11.62
2019-03-31T09:21:10.782Z,11.68
2019-03-31T09:23:42.396Z,11.74
2019-03-31T09:26:13.747Z,11.82
2019-03-31T09:28:44.106Z,11.82
2019-03-31T09:31:15.459Z,11.89
2019-03-31T09:33:46.092Z,12.00
2019-03-31T09:36:17.134Z,11.98
2019-03-31T09:38:48.641Z,12.01
2019-03-31T09:41:19.226Z,12.06
2019-03-31T09:43:49.830Z,12.16
2019-03-31T09:46:20.433Z,12.28
2019-03-31T09:48:51.013Z,12.40
2019-03-31T09:51:22.134Z,12.69
2019-03-31T09:53:52.947Z,12.98
2019-03-31T09:56:24.081Z,13.25
2019-03-31T09:58:54.688Z,13.37
2019-03-31T10:01:25.788Z,13.50
2019-03-31T10:03:56.276Z,13.68
2019-03-31T10:06:30.642Z,13.97
2019-03-31T10:08:59.779Z,14.22
2019-03-31T10:11:30.151Z,14.59
2019-03-31T10:14:00.685Z,14.79
2019-03-31T10:16:31.389Z,14.99
2019-03-31T10:19:02.042Z,14.77
2019-03-31T10:21:32.581Z,14.77
2019-03-31T10:24:03.120Z,14.64
2019-03-31T10:26:35.030Z,15.19
2019-03-31T10:29:06.315Z,15.19
2019-03-31T10:31:37.937Z,15.63
2019-03-31T10:34:08.281Z,15.63
2019-03-31T10:36:44.728Z,15.51
2019-03-31T10:39:11.414Z,15.67
2019-03-31T10:41:42.101Z,16.03
2019-03-31T10:44:13.056Z,16.03
2019-03-31T10:46:43.692Z,16.15
2019-03-31T10:49:14.369Z,16.26
2019-03-31T10:51:45.080Z,16.32
2019-03-31T10:54:15.667Z,16.30
2019-03-31T10:56:46.610Z,16.75
2019-03-31T10:59:17.227Z,16.75
2019-03-31T11:01:47.976Z,17.15
2019-03-31T11:04:18.499Z,17.15
2019-03-31T11:06:58.821Z,17.31
2019-03-31T11:09:21.685Z,17.19
2019-03-31T11:11:52.575Z,16.46
2019-03-31T11:14:23.738Z,16.46
2019-03-31T11:16:54.284Z,16.64
2019-03-31T11:19:24.854Z,16.64
2019-03-31T11:21:59.937Z,16.82
2019-03-31T11:24:30.791Z,16.98
2019-03-31T11:27:01.544Z,17.01
2019-03-31T11:29:32.210Z,16.63
2019-03-31T11:32:03.548Z,16.63
2019-03-31T11:34:34.475Z,16.70
2019-03-31T11:37:13.392Z,16.69
2019-03-31T11:39:38.797Z,16.76
2019-03-31T11:42:09.262Z,16.92
2019-03-31T11:44:39.687Z,17.17
2019-03-31T11:47:10.496Z,17.22
2019-03-31T11:49:42.450Z,17.19
2019-03-31T11:52:13.590Z,17.19
2019-03-31T11:54:45.902Z,17.28
2019-03-31T11:57:17.714Z,17.46
2019-03-31T11:59:49.841Z,17.34
2019-03-31T12:02:27.268Z,17.54
2019-03-31T12:04:53.432Z,17.54
2019-03-31T12:07:28.211Z,17.67
2019-03-31T12:09:57.325Z,17.58
2019-03-31T12:12:29.116Z,17.56
2019-03-31T12:15:01.196Z,17.56
2019-03-31T12:17:32.217Z,17.23
2019-03-31T12:20:03.101Z,17.23
2019-03-31T12:22:33.889Z,16.98
2019-03-31T12:25:05.163Z,16.98
2019-03-31T12:27:35.858Z,16.58
2019-03-31T12:30:07.425Z,16.58
2019-03-31T12:32:38.964Z,16.49
2019-03-31T12:35:10.167Z,16.53
2019-03-31T12:37:43.097Z,16.44
2019-03-31T12:40:28.796Z,16.09
2019-03-31T12:42:59.307Z,15.95
2019-03-31T12:45:31.481Z,16.49
2019-03-31T12:48:01.963Z,16.73
2019-03-31T12:50:32.824Z,16.73
2019-03-31T12:53:01.701Z,17.03
2019-03-31T12:55:30.401Z,17.24
2019-03-31T12:57:59.993Z,17.24
2019-03-31T13:00:30.688Z,17.34
2019-03-31T13:03:01.713Z,17.43
2019-03-31T13:05:33.153Z,17.49
2019-03-31T13:08:04.154Z,17.53
2019-03-31T13:10:37.736Z,17.69
2019-03-31T13:13:08.805Z,17.74
2019-03-31T13:15:39.676Z,17.64
2019-03-31T13:18:10.779Z,17.71
2019-03-31T13:20:41.496Z,17.86
2019-03-31T13:23:12.637Z,17.91
2019-03-31T13:25:43.507Z,17.96
2019-03-31T13:28:14.651Z,17.96
2019-03-31T13:30:45.183Z,18.05
2019-03-31T13:33:16.382Z,18.09
2019-03-31T13:35:46.920Z,18.09
2019-03-31T13:38:17.380Z,18.15
2019-03-31T13:40:50.540Z,18.09
2019-03-31T13:43:21.424Z,18.02
2019-03-31T13:45:52.054Z,17.84
2019-03-31T13:48:22.873Z,17.63
2019-03-31T13:50:59.237Z,17.62
2019-03-31T13:53:30.090Z,17.50
2019-03-31T13:56:01.511Z,17.50
2019-03-31T13:58:33.649Z,17.54
2019-03-31T14:01:04.947Z,17.54
2019-03-31T14:03:35.582Z,17.67
2019-03-31T14:06:06.694Z,17.63
2019-03-31T14:08:37.250Z,17.63
2019-03-31T14:11:08.067Z,17.45
2019-03-31T14:13:39.247Z,17.29
2019-03-31T14:16:09.750Z,17.35
2019-03-31T14:18:40.945Z,17.35
2019-03-31T14:21:11.430Z,17.38
2019-03-31T14:23:43.888Z,17.21
2019-03-31T14:26:14.011Z,17.21
2019-03-31T14:28:44.549Z,17.19
2019-03-31T14:31:15.687Z,17.03
2019-03-31T14:33:47.444Z,17.01
2019-03-31T14:36:18.352Z,16.99
2019-03-31T14:38:49.514Z,16.99
2019-03-31T14:41:20.247Z,16.98
2019-03-31T14:43:51.169Z,16.95
2019-03-31T14:46:22.550Z,16.79
2019-03-31T14:48:53.363Z,16.73
2019-03-31T14:51:25.383Z,16.73
2019-03-31T14:53:56.057Z,16.62
2019-03-31T14:56:27.433Z,16.65
2019-03-31T14:58:58.259Z,16.49
2019-03-31T15:01:29.080Z,16.44
2019-03-31T15:04:00.556Z,16.44
2019-03-31T15:06:31.070Z,16.19
2019-03-31T15:09:01.610Z,16.19
2019-03-31T15:11:34.575Z,16.14
2019-03-31T15:14:13.713Z,16.06
2019-03-31T15:16:48.425Z,16.00
2019-03-31T15:19:18.466Z,16.00
2019-03-31T15:21:48.999Z,15.98
2019-03-31T15:24:19.841Z,15.98
2019-03-31T15:26:50.351Z,16.02
2019-03-31T15:29:20.873Z,16.00
2019-03-31T15:31:51.409Z,15.98
2019-03-31T15:34:22.234Z,15.86
2019-03-31T15:36:53.082Z,15.76
2019-03-31T15:39:23.612Z,15.76
2019-03-31T15:41:54.117Z,15.63
2019-03-31T15:44:24.660Z,15.63
2019-03-31T15:46:55.807Z,15.53
2019-03-31T15:49:26.326Z,15.53
2019-03-31T15:51:56.864Z,15.55
2019-03-31T15:54:25.836Z,15.55
2019-03-31T15:56:56.695Z,15.57
2019-03-31T15:59:27.837Z,15.48
2019-03-31T16:01:58.360Z,15.42
2019-03-31T16:04:28.902Z,15.19
2019-03-31T16:06:59.431Z,15.19
2019-03-31T16:09:29.416Z,15.16
2019-03-31T16:11:59.710Z,15.09
2019-03-31T16:14:29.702Z,15.09
2019-03-31T16:16:59.779Z,15.03
2019-03-31T16:19:29.776Z,14.87
2019-03-31T16:21:59.586Z,14.75
2019-03-31T16:24:39.368Z,14.62
2019-03-31T16:27:09.413Z,14.47
2019-03-31T16:29:39.570Z,14.31
2019-03-31T16:32:09.719Z,14.31
2019-03-31T16:34:39.902Z,14.18
2019-03-31T16:37:09.872Z,14.16
2019-03-31T16:39:39.737Z,14.16
2019-03-31T16:42:10.263Z,14.02
2019-03-31T16:44:40.512Z,14.02
2019-03-31T16:47:10.738Z,13.95
2019-03-31T16:49:41.551Z,13.82
2019-03-31T16:52:11.969Z,13.75
2019-03-31T16:54:41.988Z,13.73
2019-03-31T16:57:10.750Z,13.65
2019-03-31T16:59:39.296Z,13.62
2019-03-31T17:02:10.094Z,13.52
2019-03-31T17:04:40.133Z,13.46
2019-03-31T17:07:10.341Z,13.45
2019-03-31T17:09:50.950Z,13.29
2019-03-31T17:12:12.643Z,13.29
2019-03-31T17:14:42.846Z,13.16
2019-03-31T17:17:12.930Z,13.04
2019-03-31T17:19:42.993Z,12.90
2019-03-31T17:22:12.933Z,12.72
2019-03-31T17:24:42.806Z,12.66
2019-03-31T17:27:14.189Z,12.58
2019-03-31T17:29:45.273Z,12.46
2019-03-31T17:32:15.335Z,12.46
2019-03-31T17:34:46.775Z,12.38
2019-03-31T17:37:17.144Z,12.31
2019-03-31T17:39:47.290Z,12.18
2019-03-31T17:42:17.659Z,12.10
2019-03-31T17:44:48.318Z,12.04
2019-03-31T17:47:18.503Z,11.94
2019-03-31T17:49:48.851Z,11.89
2019-03-31T17:52:19.258Z,11.82
2019-03-31T17:54:49.475Z,11.72
2019-03-31T17:57:20.496Z,11.64
2019-03-31T17:59:50.957Z,11.58
2019-03-31T18:02:21.340Z,11.50
2019-03-31T18:04:51.309Z,11.40
2019-03-31T18:07:21.401Z,11.31
2019-03-31T18:09:52.788Z,11.24
2019-03-31T18:12:23.161Z,11.16
2019-03-31T18:14:53.224Z,11.08
2019-03-31T18:17:23.604Z,10.97
2019-03-31T18:19:53.727Z,10.80
2019-03-31T18:22:23.840Z,10.69
2019-03-31T18:24:53.668Z,10.64
2019-03-31T18:27:23.559Z,10.58
2019-03-31T18:29:53.807Z,10.47
2019-03-31T18:32:24.121Z,10.37
2019-03-31T18:34:54.006Z,10.28
2019-03-31T18:37:24.446Z,10.13
2019-03-31T18:39:54.365Z,10.02
2019-03-31T18:42:24.299Z,9.99
2019-03-31T18:44:54.642Z,9.97
2019-03-31T18:47:24.737Z,9.94
2019-03-31T18:49:54.970Z,9.85
2019-03-31T18:52:24.764Z,9.78
2019-03-31T18:55:12.838Z,9.70
2019-03-31T18:58:01.075Z,9.70
2019-03-31T19:00:41.091Z,9.65
2019-03-31T19:03:48.394Z,9.53
2019-03-31T19:06:36.266Z,9.43
2019-03-31T19:09:15.178Z,9.35
2019-03-31T19:12:02.453Z,9.24
2019-03-31T19:14:39.796Z,9.19
2019-03-31T19:17:43.823Z,9.14
2019-03-31T19:20:23.072Z,9.13
2019-03-31T19:23:19.929Z,9.04
2019-03-31T19:26:18.172Z,8.96
2019-03-31T19:29:06.825Z,8.86
2019-03-31T19:32:07.864Z,8.80
2019-03-31T19:34:55.159Z,8.74
2019-03-31T19:37:42.748Z,8.68
2019-03-31T19:40:35.378Z,8.54
2019-03-31T19:43:15.099Z,8.49
2019-03-31T19:46:10.399Z,8.45
2019-03-31T19:48:58.171Z,8.34
2019-03-31T19:51:38.373Z,8.30
2019-03-31T19:54:40.580Z,8.26
2019-03-31T19:57:23.878Z,8.23
2019-03-31T20:00:14.031Z,8.13
2019-03-31T20:02:57.773Z,8.15
2019-03-31T20:05:36.145Z,8.09
2019-03-31T20:08:31.135Z,8.01
2019-03-31T20:11:12.414Z,7.91
2019-03-31T20:14:01.611Z,7.80
2019-03-31T20:16:39.289Z,7.75
2019-03-31T20:19:28.550Z,7.65
2019-03-31T20:22:07.374Z,7.65
2019-03-31T20:24:55.178Z,7.56
2019-03-31T20:27:30.750Z,7.54
2019-03-31T20:30:25.697Z,7.50
2019-03-31T20:33:13.253Z,7.51
2019-03-31T20:36:02.275Z,7.40
2019-03-31T20:38:55.788Z,7.31
2019-03-31T20:41:59.783Z,7.31
2019-03-31T20:44:29.827Z,7.27
2019-03-31T20:47:00.636Z,7.22
2019-03-31T20:49:30.852Z,7.11
2019-03-31T20:52:01.980Z,7.10
2019-03-31T20:54:33.282Z,7.09
2019-03-31T20:57:03.351Z,7.06
2019-03-31T20:59:33.686Z,7.03
2019-03-31T21:02:04.047Z,7.03
2019-03-31T21:04:34.026Z,6.90
2019-03-31T21:07:03.997Z,6.87
2019-03-31T21:09:44.781Z,6.82
2019-03-31T21:12:06.449Z,6.82
2019-03-31T21:14:36.433Z,6.77
2019-03-31T21:17:06.650Z,6.78
2019-03-31T21:19:36.574Z,6.77
2019-03-31T21:22:07.710Z,6.73
2019-03-31T21:24:37.644Z,6.67
2019-03-31T21:27:10.008Z,6.62
2019-03-31T21:29:39.924Z,6.53
2019-03-31T21:32:10.031Z,6.54
2019-03-31T21:34:39.011Z,6.54
2019-03-31T21:37:09.673Z,6.48
2019-03-31T21:39:39.560Z,6.48
2019-03-31T21:42:14.010Z,6.41
2019-03-31T21:44:44.949Z,6.36
2019-03-31T21:47:15.152Z,6.36
2019-03-31T21:49:45.621Z,6.31
2019-03-31T21:52:16.517Z,6.25
2019-03-31T21:54:46.431Z,6.24
2019-03-31T21:57:17.312Z,6.25
2019-03-31T21:59:47.622Z,6.19
2019-03-31T22:02:18.448Z,6.17
2019-03-31T22:04:48.548Z,6.14
2019-03-31T22:07:18.915Z,6.16
2019-03-31T22:09:48.978Z,6.14
2019-03-31T22:12:19.606Z,6.10
2019-03-31T22:14:49.729Z,6.06
2019-03-31T22:17:19.956Z,6.07
2019-03-31T22:19:49.871Z,5.98
2019-03-31T22:22:19.769Z,5.98
2019-03-31T22:24:49.721Z,5.95
2019-03-31T22:27:19.692Z,5.95
2019-03-31T22:29:49.528Z,5.88
2019-03-31T22:32:20.060Z,5.87
2019-03-31T22:34:49.972Z,5.81
2019-03-31T22:37:19.882Z,5.81
2019-03-31T22:39:50.417Z,5.79
2019-03-31T22:42:20.223Z,5.76
2019-03-31T22:44:50.538Z,5.73
2019-03-31T22:47:21.803Z,5.70
2019-03-31T22:49:52.054Z,5.68
2019-03-31T22:52:21.925Z,5.64
2019-03-31T22:54:51.730Z,5.60
2019-03-31T22:57:21.788Z,5.58
2019-03-31T22:59:51.583Z,5.55
2019-03-31T23:02:22.405Z,5.57
2019-03-31T23:04:52.454Z,5.51
2019-03-31T23:07:23.838Z,5.49
2019-03-31T23:09:53.804Z,5.47
2019-03-31T23:12:23.912Z,5.49
2019-03-31T23:14:53.810Z,5.48
2019-03-31T23:17:24.041Z,5.49
2019-03-31T23:19:53.943Z,5.51
2019-03-31T23:22:27.592Z,5.48
2019-03-31T23:24:56.520Z,5.46
2019-03-31T23:27:26.467Z,5.41
2019-03-31T23:29:56.493Z,5.35
2019-03-31T23:32:26.743Z,5.36
2019-03-31T23:34:56.620Z,5.33
2019-03-31T23:37:26.895Z,5.27
2019-03-31T23:39:57.068Z,5.29
2019-03-31T23:45:04.084Z,5.22
2019-03-31T23:47:34.040Z,5.21
2019-03-31T23:50:04.295Z,5.19
2019-03-31T23:52:34.497Z,5.07
2019-03-31T23:55:05.656Z,5.07
2019-03-31T23:57:42.340Z,5.06
